createdAt,value
2023-04-02T00:00:57.641Z,2.67
2023-04-02T00:01:57.729Z,2.30
2023-04-02T00:02:57.876Z,2.16
2023-04-02T00:03:57.777Z,2.34
2023-04-02T00:04:57.780Z,2.18
2023-04-02T00:05:57.864Z,2.17
2023-04-02T00:06:57.867Z,1.84
2023-04-02T00:07:57.872Z,1.88
2023-04-02T00:08:57.916Z,1.61
2023-04-02T00:09:57.929Z,1.65
2023-04-02T00:10:57.912Z,1.46
2023-04-02T00:11:57.982Z,1.51
2023-04-02T00:12:57.986Z,1.65
2023-04-02T00:13:58.016Z,1.57
2023-04-02T00:14:58.099Z,1.41
2023-04-02T00:15:58.206Z,1.65
2023-04-02T00:16:58.095Z,1.87
2023-04-02T00:17:58.177Z,1.63
2023-04-02T00:18:58.227Z,1.73
2023-04-02T00:19:58.287Z,1.40
2023-04-02T00:20:58.221Z,1.69
2023-04-02T00:21:58.229Z,1.63
2023-04-02T00:22:58.266Z,1.42
2023-04-02T00:23:58.316Z,1.59
2023-04-02T00:24:58.361Z,1.63
2023-04-02T00:25:58.372Z,1.92
2023-04-02T00:26:58.400Z,2.23
2023-04-02T00:27:58.412Z,2.32
2023-04-02T00:28:58.459Z,3.10
2023-04-02T00:29:58.472Z,4.02
2023-04-02T00:30:58.495Z,4.41
2023-04-02T00:31:58.547Z,4.65
2023-04-02T00:32:58.579Z,5.67
2023-04-02T00:33:58.620Z,5.71
2023-04-02T00:34:58.620Z,6.07
2023-04-02T00:35:58.686Z,6.73
2023-04-02T00:36:58.678Z,8.62
2023-04-02T00:37:58.706Z,9.35
2023-04-02T00:38:58.704Z,4.86
2023-04-02T00:39:58.753Z,4.43
2023-04-02T00:40:58.801Z,4.65
2023-04-02T00:41:58.843Z,4.91
2023-04-02T00:42:58.848Z,5.11
2023-04-02T00:43:58.831Z,4.60
2023-04-02T00:44:58.891Z,3.81
2023-04-02T00:45:58.940Z,3.95
2023-04-02T00:46:58.946Z,3.43
2023-04-02T00:47:59.020Z,3.21
2023-04-02T00:48:59.010Z,3.54
2023-04-02T00:49:59.081Z,3.77
2023-04-02T00:50:59.119Z,3.37
2023-04-02T00:51:59.146Z,3.05
2023-04-02T00:52:59.176Z,2.28
2023-04-02T00:53:59.187Z,1.48
2023-04-02T00:54:59.196Z,1.94
2023-04-02T00:55:59.232Z,2.32
2023-04-02T00:56:59.305Z,2.37
2023-04-02T00:57:59.287Z,2.76
2023-04-02T00:58:59.316Z,2.88
2023-04-02T00:59:59.381Z,3.38
2023-04-02T01:00:59.401Z,4.01
2023-04-02T01:01:59.392Z,3.87
2023-04-02T01:02:59.470Z,4.34
2023-04-02T01:03:59.468Z,4.29
2023-04-02T01:04:59.515Z,4.95
2023-04-02T01:05:59.560Z,5.18
2023-04-02T01:06:59.616Z,4.86
2023-04-02T01:07:59.635Z,4.05
2023-04-02T01:08:59.649Z,4.09
2023-04-02T01:09:59.676Z,3.92
2023-04-02T01:10:59.729Z,4.25
2023-04-02T01:11:59.766Z,4.19
2023-04-02T01:12:59.799Z,4.23
2023-04-02T01:13:59.814Z,4.58
2023-04-02T01:14:59.846Z,3.48
2023-04-02T01:15:59.928Z,4.01
2023-04-02T01:16:59.917Z,4.85
2023-04-02T01:17:59.979Z,6.10
2023-04-02T01:18:59.949Z,5.03
2023-04-02T01:19:59.949Z,4.96
2023-04-02T01:21:00.031Z,4.23
2023-04-02T01:22:00.011Z,3.79
2023-04-02T01:23:00.037Z,4.63
2023-04-02T01:24:00.048Z,5.24
2023-04-02T01:25:00.119Z,7.14
2023-04-02T01:26:00.093Z,6.02
2023-04-02T01:27:00.146Z,3.48
2023-04-02T01:28:00.139Z,3.35
2023-04-02T01:29:00.184Z,4.35
2023-04-02T01:30:00.188Z,4.66
2023-04-02T01:31:00.286Z,3.93
2023-04-02T01:32:00.249Z,4.55
2023-04-02T01:33:00.356Z,5.06
2023-04-02T01:34:00.346Z,5.34
2023-04-02T01:35:00.392Z,5.70
2023-04-02T01:36:00.478Z,4.88
2023-04-02T01:37:00.444Z,4.56
2023-04-02T01:38:00.450Z,4.90
2023-04-02T01:39:00.487Z,4.95
2023-04-02T01:40:00.490Z,5.51
2023-04-02T01:41:00.513Z,6.19
2023-04-02T01:42:00.540Z,7.35
2023-04-02T01:43:00.535Z,7.43
2023-04-02T01:44:00.579Z,7.34
2023-04-02T01:45:00.581Z,6.28
2023-04-02T01:46:00.649Z,5.24
2023-04-02T01:47:00.635Z,5.62
2023-04-02T01:48:00.729Z,4.85
2023-04-02T01:49:00.712Z,5.46
2023-04-02T01:50:00.757Z,7.10
2023-04-02T01:51:00.742Z,6.31
2023-04-02T01:52:00.834Z,5.20
2023-04-02T01:53:00.835Z,5.26
2023-04-02T01:54:00.895Z,6.54
2023-04-02T01:55:00.891Z,7.78
2023-04-02T01:56:00.942Z,10.30
2023-04-02T01:57:00.975Z,8.70
2023-04-02T01:58:00.974Z,9.96
2023-04-02T01:59:01.077Z,11.38
2023-04-02T02:00:01.051Z,11.04
2023-04-02T02:01:01.113Z,12.44
2023-04-02T02:02:01.138Z,14.10
2023-04-02T02:03:01.173Z,14.63
2023-04-02T02:04:01.106Z,11.80
2023-04-02T02:05:01.136Z,11.80
2023-04-02T02:06:01.179Z,11.14
2023-04-02T02:07:01.586Z,9.61
2023-04-02T02:08:01.267Z,8.53
2023-04-02T02:09:01.300Z,7.47
2023-04-02T02:10:01.353Z,8.07
2023-04-02T02:11:01.391Z,9.60
2023-04-02T02:12:01.409Z,11.94
2023-04-02T02:13:01.433Z,12.47
2023-04-02T02:14:01.479Z,17.05
2023-04-02T02:15:01.536Z,20.19
2023-04-02T02:16:01.541Z,20.90
2023-04-02T02:17:01.544Z,23.42
2023-04-02T02:18:01.578Z,25.82
2023-04-02T02:19:01.612Z,26.16
2023-04-02T02:20:01.633Z,29.85
2023-04-02T02:21:01.626Z,36.64
2023-04-02T02:22:01.660Z,27.70
2023-04-02T02:23:01.674Z,23.72
2023-04-02T02:24:01.707Z,30.38
2023-04-02T02:25:01.743Z,25.29
2023-04-02T02:26:01.774Z,23.70
2023-04-02T02:27:01.829Z,31.12
2023-04-02T02:28:01.855Z,38.69
2023-04-02T02:29:01.906Z,37.24
2023-04-02T02:30:01.922Z,45.02
2023-04-02T02:31:01.948Z,46.93
2023-04-02T02:32:01.986Z,43.52
2023-04-02T02:33:02.084Z,49.64
2023-04-02T02:34:02.039Z,61.18
2023-04-02T02:35:02.082Z,48.39
2023-04-02T02:36:02.160Z,29.92
2023-04-02T02:37:02.135Z,25.90
2023-04-02T02:38:02.162Z,25.58
2023-04-02T02:39:02.212Z,22.74
2023-04-02T02:40:02.252Z,25.74
2023-04-02T02:41:02.230Z,25.43
2023-04-02T02:42:02.269Z,26.77
2023-04-02T02:43:02.319Z,32.08
2023-04-02T02:44:02.331Z,32.87
2023-04-02T02:45:02.410Z,33.45
2023-04-02T02:46:02.467Z,37.84
2023-04-02T02:47:02.585Z,38.39
2023-04-02T02:48:02.493Z,37.83
2023-04-02T02:49:02.495Z,39.04
2023-04-02T02:50:02.489Z,43.11
2023-04-02T02:51:02.543Z,34.35
2023-04-02T02:52:02.540Z,35.32
2023-04-02T02:53:02.613Z,41.23
2023-04-02T02:54:02.638Z,41.25
2023-04-02T02:55:02.701Z,45.54
2023-04-02T02:56:02.764Z,46.89
2023-04-02T02:57:02.749Z,50.06
2023-04-02T02:58:02.772Z,55.05
2023-04-02T02:59:02.780Z,61.04
2023-04-02T03:00:02.787Z,54.13
2023-04-02T03:01:02.827Z,37.54
2023-04-02T03:02:02.842Z,23.62
2023-04-02T03:03:02.916Z,22.80
2023-04-02T03:04:03.053Z,25.41
2023-04-02T03:05:02.951Z,30.94
2023-04-02T03:06:02.999Z,30.30
2023-04-02T03:07:03.024Z,35.82
2023-04-02T03:08:03.069Z,38.29
2023-04-02T03:09:03.081Z,37.00
2023-04-02T03:10:03.111Z,46.21
2023-04-02T03:11:03.100Z,43.57
2023-04-02T03:12:03.153Z,44.46
2023-04-02T03:13:03.182Z,47.56
2023-04-02T03:14:03.225Z,49.40
2023-04-02T03:15:03.248Z,47.31
2023-04-02T03:16:03.383Z,38.39
2023-04-02T03:17:03.373Z,30.84
2023-04-02T03:18:03.421Z,30.31
2023-04-02T03:19:03.456Z,25.79
2023-04-02T03:20:03.486Z,30.04
2023-04-02T03:21:03.551Z,33.50
2023-04-02T03:22:03.562Z,37.57
2023-04-02T03:23:03.576Z,45.73
2023-04-02T03:24:03.591Z,45.85
2023-04-02T03:25:03.615Z,45.20
2023-04-02T03:26:03.655Z,35.66
2023-04-02T03:27:03.716Z,32.60
2023-04-02T03:28:03.741Z,38.36
2023-04-02T03:29:03.782Z,40.72
2023-04-02T03:30:03.780Z,37.36
2023-04-02T03:31:03.882Z,40.24
2023-04-02T03:32:03.789Z,30.71
2023-04-02T03:33:03.855Z,29.77
2023-04-02T03:34:03.921Z,30.41
2023-04-02T03:35:03.920Z,37.68
2023-04-02T03:36:03.962Z,40.42
2023-04-02T03:37:03.977Z,32.55
2023-04-02T03:38:03.985Z,28.98
2023-04-02T03:39:04.043Z,29.42
2023-04-02T03:40:04.040Z,28.40
2023-04-02T03:41:04.085Z,24.61
2023-04-02T03:42:04.122Z,24.48
2023-04-02T03:43:04.181Z,30.53
2023-04-02T03:44:04.154Z,38.00
2023-04-02T03:45:04.182Z,43.96
2023-04-02T03:46:04.292Z,57.19
2023-04-02T03:47:04.303Z,55.63
2023-04-02T03:48:04.324Z,46.99
2023-04-02T03:49:04.305Z,47.86
2023-04-02T03:50:04.351Z,57.02
2023-04-02T03:51:04.380Z,54.42
2023-04-02T03:52:04.394Z,60.78
2023-04-02T03:53:04.441Z,55.99
2023-04-02T03:54:04.458Z,61.24
2023-04-02T03:55:04.496Z,62.70
2023-04-02T03:56:04.490Z,78.64
2023-04-02T03:57:04.562Z,87.64
2023-04-02T03:58:04.533Z,90.90
2023-04-02T03:59:04.577Z,85.36
2023-04-02T04:00:04.631Z,71.28
2023-04-02T04:01:04.626Z,72.01
2023-04-02T04:02:04.716Z,64.30
2023-04-02T04:03:04.769Z,60.76
2023-04-02T04:04:04.773Z,59.84
2023-04-02T04:05:04.750Z,55.78
2023-04-02T04:06:04.745Z,47.54
2023-04-02T04:07:04.771Z,59.94
2023-04-02T04:08:04.774Z,67.87
2023-04-02T04:09:04.838Z,72.35
2023-04-02T04:10:04.985Z,88.45
2023-04-02T04:11:04.943Z,83.51
2023-04-02T04:12:04.936Z,81.38
2023-04-02T04:13:04.970Z,88.27
2023-04-02T04:14:05.041Z,80.92
2023-04-02T04:15:05.092Z,79.89
2023-04-02T04:16:05.220Z,85.87
2023-04-02T04:17:05.068Z,77.56
2023-04-02T04:18:05.117Z,82.66
2023-04-02T04:19:05.230Z,83.15
2023-04-02T04:20:05.177Z,79.53
2023-04-02T04:21:05.239Z,89.53
2023-04-02T04:22:05.248Z,103.38
2023-04-02T04:23:05.312Z,123.45
2023-04-02T04:24:05.311Z,106.46
2023-04-02T04:25:05.384Z,116.53
2023-04-02T04:26:05.425Z,106.24
2023-04-02T04:27:05.454Z,86.99
2023-04-02T04:28:05.703Z,72.16
2023-04-02T04:29:05.556Z,74.24
2023-04-02T04:30:05.576Z,60.94
2023-04-02T04:31:05.650Z,53.35
2023-04-02T04:32:05.641Z,63.36
2023-04-02T04:33:05.781Z,63.58
2023-04-02T04:34:05.667Z,61.98
2023-04-02T04:35:05.715Z,62.68
2023-04-02T04:36:05.750Z,54.86
2023-04-02T04:37:05.743Z,55.67
2023-04-02T04:38:05.768Z,51.36
2023-04-02T04:39:05.820Z,52.42
2023-04-02T04:40:05.828Z,52.74
2023-04-02T04:41:05.878Z,65.69
2023-04-02T04:42:05.903Z,73.18
2023-04-02T04:43:05.976Z,68.34
2023-04-02T04:44:05.979Z,58.47
2023-04-02T04:45:05.976Z,62.51
2023-04-02T04:46:06.018Z,70.96
2023-04-02T04:47:06.018Z,74.18
2023-04-02T04:48:06.083Z,69.84
2023-04-02T04:49:06.073Z,65.35
2023-04-02T04:50:06.169Z,50.78
2023-04-02T04:51:06.163Z,52.25
2023-04-02T04:52:06.203Z,57.73
2023-04-02T04:53:06.211Z,72.63
2023-04-02T04:54:06.262Z,81.63
2023-04-02T04:55:06.268Z,89.76
2023-04-02T04:56:18.756Z,111.46
2023-04-02T04:57:07.346Z,99.61
2023-04-02T04:58:06.302Z,83.37
2023-04-02T04:59:06.381Z,86.83
2023-04-02T05:00:06.312Z,92.86
2023-04-02T05:01:06.339Z,79.25
2023-04-02T05:02:06.306Z,65.79
2023-04-02T05:03:06.290Z,69.89
2023-04-02T05:04:06.260Z,61.62
2023-04-02T05:05:06.244Z,49.92
2023-04-02T05:06:06.260Z,51.64
2023-04-02T05:07:06.269Z,46.71
2023-04-02T05:08:06.284Z,50.33
2023-04-02T05:09:06.228Z,51.14
2023-04-02T05:10:06.202Z,48.73
2023-04-02T05:11:06.263Z,51.66
2023-04-02T05:12:06.275Z,45.89
2023-04-02T05:13:06.331Z,41.90
2023-04-02T05:14:06.356Z,43.41
2023-04-02T05:15:06.397Z,38.44
2023-04-02T05:16:06.441Z,30.39
2023-04-02T05:17:06.418Z,24.60
2023-04-02T05:18:06.509Z,19.13
2023-04-02T05:19:06.496Z,16.32
2023-04-02T05:20:06.519Z,15.26
2023-04-02T05:21:06.608Z,15.90
2023-04-02T05:22:06.568Z,16.53
2023-04-02T05:23:06.591Z,20.50
2023-04-02T05:24:06.645Z,26.12
2023-04-02T05:25:06.685Z,33.16
2023-04-02T05:26:06.737Z,36.69
2023-04-02T05:27:06.792Z,49.20
2023-04-02T05:28:06.814Z,60.55
2023-04-02T05:29:06.794Z,34.92
2023-04-02T05:30:06.862Z,30.26
2023-04-02T05:31:06.930Z,35.23
2023-04-02T05:32:06.911Z,32.41
2023-04-02T05:33:06.957Z,26.50
2023-04-02T05:34:06.937Z,24.41
2023-04-02T05:35:07.001Z,23.53
2023-04-02T05:36:07.050Z,21.22
2023-04-02T05:37:07.306Z,22.55
2023-04-02T05:38:07.117Z,24.25
2023-04-02T05:39:07.157Z,26.19
2023-04-02T05:40:07.186Z,27.53
2023-04-02T05:41:07.200Z,28.78
2023-04-02T05:42:07.261Z,28.10
2023-04-02T05:43:07.302Z,25.92
2023-04-02T05:44:07.352Z,28.13
2023-04-02T05:45:07.323Z,27.55
2023-04-02T05:46:07.388Z,25.51
2023-04-02T05:47:07.386Z,28.91
2023-04-02T05:48:07.460Z,29.17
2023-04-02T05:49:07.414Z,25.91
2023-04-02T05:50:07.451Z,27.33
2023-04-02T05:51:07.428Z,30.30
2023-04-02T05:52:07.471Z,30.57
2023-04-02T05:53:07.490Z,38.69
2023-04-02T05:54:07.545Z,44.62
2023-04-02T05:55:07.546Z,49.30
2023-04-02T05:56:07.635Z,54.30
2023-04-02T05:57:07.784Z,58.54
2023-04-02T05:59:08.660Z,42.42
2023-04-02T06:00:07.642Z,41.48
2023-04-02T06:01:07.685Z,42.00
2023-04-02T06:02:07.729Z,43.31
2023-04-02T06:03:07.880Z,50.77
2023-04-02T06:04:07.665Z,56.97
2023-04-02T06:05:07.624Z,55.60
2023-04-02T06:06:07.595Z,44.49
2023-04-02T06:07:07.624Z,42.76
2023-04-02T06:08:07.627Z,31.76
2023-04-02T06:09:07.593Z,31.88
2023-04-02T06:10:07.611Z,42.15
2023-04-02T06:11:07.589Z,39.94
2023-04-02T06:12:07.581Z,34.28
2023-04-02T06:13:07.580Z,25.92
2023-04-02T06:14:07.614Z,25.52
2023-04-02T06:15:07.606Z,27.88
2023-04-02T06:16:07.668Z,27.00
2023-04-02T06:17:07.707Z,27.26
2023-04-02T06:18:07.763Z,28.64
2023-04-02T06:19:07.746Z,31.59
2023-04-02T06:20:07.776Z,34.74
2023-04-02T06:21:07.820Z,37.52
2023-04-02T06:22:07.836Z,37.01
2023-04-02T06:23:07.838Z,39.14
2023-04-02T06:24:07.915Z,40.30
2023-04-02T06:25:07.933Z,28.55
2023-04-02T06:26:07.971Z,31.76
2023-04-02T06:27:07.991Z,37.00
2023-04-02T06:28:08.041Z,34.18
2023-04-02T06:29:08.098Z,31.57
2023-04-02T06:30:08.102Z,28.82
2023-04-02T06:31:08.138Z,29.66
2023-04-02T06:32:08.173Z,35.00
2023-04-02T06:33:08.180Z,37.38
2023-04-02T06:34:08.237Z,34.66
2023-04-02T06:35:08.217Z,27.63
2023-04-02T06:36:08.319Z,20.56
2023-04-02T06:37:08.321Z,17.75
2023-04-02T06:38:08.355Z,21.18
2023-04-02T06:39:08.390Z,24.94
2023-04-02T06:40:08.426Z,30.49
2023-04-02T06:41:08.492Z,31.95
2023-04-02T06:42:08.486Z,31.93
2023-04-02T06:43:08.551Z,30.15
2023-04-02T06:44:08.546Z,30.07
2023-04-02T06:45:08.564Z,30.98
2023-04-02T06:46:08.726Z,29.78
2023-04-02T06:47:08.600Z,23.29
2023-04-02T06:48:08.722Z,21.07
2023-04-02T06:49:08.664Z,23.23
2023-04-02T06:50:08.700Z,24.30
2023-04-02T06:51:08.739Z,20.08
2023-04-02T06:52:08.724Z,15.13
2023-04-02T06:53:08.741Z,14.24
2023-04-02T06:54:08.780Z,14.33
2023-04-02T06:55:08.881Z,14.00
2023-04-02T06:56:08.831Z,10.87
2023-04-02T06:57:08.882Z,11.79
2023-04-02T06:58:08.900Z,14.59
2023-04-02T06:59:08.936Z,12.81
2023-04-02T07:00:08.912Z,11.97
2023-04-02T07:01:09.003Z,14.34
2023-04-02T07:02:08.967Z,15.18
2023-04-02T07:03:09.068Z,14.26
2023-04-02T07:04:09.054Z,9.54
2023-04-02T07:05:09.269Z,9.12
2023-04-02T07:06:09.133Z,7.24
2023-04-02T07:07:09.143Z,6.88
2023-04-02T07:08:09.152Z,6.70
2023-04-02T07:09:09.186Z,5.71
2023-04-02T07:10:09.293Z,2.93
2023-04-02T07:11:09.265Z,2.10
2023-04-02T07:12:09.341Z,2.15
2023-04-02T07:13:09.344Z,1.55
2023-04-02T07:14:09.370Z,0.99
2023-04-02T07:15:09.387Z,0.67
2023-04-02T07:16:09.542Z,0.50
2023-04-02T07:17:09.489Z,0.37
2023-04-02T07:18:09.586Z,0.34
2023-04-02T07:19:09.559Z,0.34
2023-04-02T07:20:09.562Z,0.37
2023-04-02T07:21:09.598Z,0.50
2023-04-02T07:22:09.642Z,0.52
2023-04-02T07:23:09.690Z,0.53
2023-04-02T07:24:09.694Z,0.50
2023-04-02T07:25:09.720Z,0.47
2023-04-02T07:26:09.764Z,0.50
2023-04-02T07:27:09.801Z,0.58
2023-04-02T07:28:09.763Z,0.73
2023-04-02T07:29:09.852Z,0.87
2023-04-02T07:30:09.853Z,0.78
2023-04-02T07:31:09.916Z,0.70
2023-04-02T07:32:09.907Z,1.18
2023-04-02T07:33:09.990Z,1.08
2023-04-02T07:34:10.033Z,0.71
2023-04-02T07:35:10.059Z,0.54
2023-04-02T07:36:10.089Z,0.51
2023-04-02T07:37:10.106Z,0.51
2023-04-02T07:38:10.138Z,0.47
2023-04-02T07:39:10.187Z,0.50
2023-04-02T07:40:10.215Z,0.51
2023-04-02T07:41:10.265Z,0.68
2023-04-02T07:42:10.273Z,0.95
2023-04-02T07:43:10.320Z,1.24
2023-04-02T07:44:10.346Z,1.37
2023-04-02T07:45:10.355Z,1.70
2023-04-02T07:46:10.458Z,2.19
2023-04-02T07:47:10.466Z,2.33
2023-04-02T07:48:10.473Z,2.40
2023-04-02T07:49:10.497Z,2.51
2023-04-02T07:50:10.498Z,2.32
2023-04-02T07:51:10.535Z,2.29
2023-04-02T07:52:10.559Z,2.02
2023-04-02T07:53:10.573Z,1.97
2023-04-02T07:54:10.613Z,1.18
2023-04-02T07:55:10.632Z,1.01
2023-04-02T07:56:10.687Z,0.77
2023-04-02T07:57:10.748Z,0.72
2023-04-02T07:58:10.898Z,0.64
2023-04-02T07:59:10.944Z,0.34
2023-04-02T08:00:10.964Z,0.34
2023-04-02T08:01:11.022Z,0.34
2023-04-02T08:02:11.075Z,0.34
2023-04-02T08:03:11.113Z,0.34
2023-04-02T08:04:11.113Z,0.34
2023-04-02T08:05:11.049Z,0.34
2023-04-02T08:06:11.095Z,0.34
2023-04-02T08:07:11.120Z,0.34
2023-04-02T08:08:11.145Z,0.34
2023-04-02T08:09:11.225Z,0.50
2023-04-02T08:10:11.240Z,0.63
2023-04-02T08:11:11.278Z,1.18
2023-04-02T08:12:11.294Z,2.19
2023-04-02T08:13:11.341Z,1.57
2023-04-02T08:14:11.356Z,2.19
2023-04-02T08:15:11.408Z,3.06
2023-04-02T08:16:11.534Z,4.24
2023-04-02T08:17:11.576Z,3.84
2023-04-02T08:18:11.519Z,3.84
2023-04-02T08:19:11.544Z,3.58
2023-04-02T08:20:11.558Z,2.30
2023-04-02T08:21:11.613Z,1.19
2023-04-02T08:22:11.647Z,1.09
2023-04-02T08:23:11.669Z,0.84
2023-04-02T08:24:11.727Z,0.56
2023-04-02T08:25:11.776Z,0.47
2023-04-02T08:26:11.817Z,0.56
2023-04-02T08:27:11.863Z,0.63
2023-04-02T08:28:11.891Z,0.86
2023-04-02T08:29:11.934Z,1.47
2023-04-02T08:30:11.977Z,2.76
2023-04-02T08:31:12.057Z,4.14
2023-04-02T08:32:12.091Z,2.72
2023-04-02T08:33:12.131Z,1.62
2023-04-02T08:34:12.102Z,1.13
2023-04-02T08:35:12.113Z,0.50
2023-04-02T08:36:12.146Z,0.73
2023-04-02T08:37:12.164Z,0.34
2023-04-02T08:38:12.196Z,0.34
2023-04-02T08:39:12.242Z,0.34
2023-04-02T08:40:12.236Z,0.34
2023-04-02T08:41:12.243Z,0.40
2023-04-02T08:42:12.283Z,0.55
2023-04-02T08:43:12.321Z,0.48
2023-04-02T08:44:12.309Z,0.45
2023-04-02T08:45:24.207Z,0.52
2023-04-02T08:46:13.375Z,0.34
2023-04-02T08:47:12.383Z,0.34
2023-04-02T08:48:12.394Z,0.34
2023-04-02T08:49:12.365Z,0.34
2023-04-02T08:50:12.365Z,0.38
2023-04-02T08:51:12.335Z,0.34
2023-04-02T08:52:12.347Z,0.34
2023-04-02T08:53:12.312Z,0.34
2023-04-02T08:54:12.339Z,0.34
2023-04-02T08:55:12.343Z,0.34
2023-04-02T08:56:12.313Z,0.34
2023-04-02T08:57:12.345Z,0.34
2023-04-02T08:58:12.294Z,0.34
2023-04-02T08:59:12.252Z,0.34
2023-04-02T09:00:12.254Z,0.34
2023-04-02T09:01:12.260Z,0.43
2023-04-02T09:02:12.274Z,0.40
2023-04-02T09:03:12.299Z,0.38
2023-04-02T09:04:12.359Z,0.34
2023-04-02T09:05:12.626Z,0.34
2023-04-02T09:06:13.388Z,0.41
2023-04-02T09:07:12.506Z,0.65
2023-04-02T09:08:12.553Z,0.47
2023-04-02T09:09:12.627Z,0.60
2023-04-02T09:10:12.633Z,0.38
2023-04-02T09:11:12.671Z,0.34
2023-04-02T09:12:12.722Z,0.34
2023-04-02T09:13:12.745Z,0.38
2023-04-02T09:14:12.758Z,0.61
2023-04-02T09:15:12.771Z,1.36
2023-04-02T09:16:12.849Z,1.32
2023-04-02T09:17:12.823Z,0.81
2023-04-02T09:18:12.904Z,0.84
2023-04-02T09:19:12.893Z,0.80
2023-04-02T09:20:12.935Z,0.57
2023-04-02T09:21:12.976Z,0.39
2023-04-02T09:22:12.965Z,0.37
2023-04-02T09:23:13.018Z,0.36
2023-04-02T09:24:13.078Z,0.34
2023-04-02T09:25:13.081Z,0.41
2023-04-02T09:26:13.133Z,0.34
2023-04-02T09:27:13.175Z,0.34
2023-04-02T09:28:13.189Z,0.34
2023-04-02T09:29:13.305Z,0.34
2023-04-02T09:30:13.275Z,0.34
2023-04-02T09:31:13.396Z,0.34
2023-04-02T09:32:13.326Z,0.34
2023-04-02T09:33:13.341Z,0.51
2023-04-02T09:34:13.352Z,0.38
2023-04-02T09:35:24.783Z,0.35
2023-04-02T09:36:16.071Z,0.34
2023-04-02T09:37:13.370Z,0.36
2023-04-02T09:38:13.371Z,0.40
2023-04-02T09:39:13.366Z,0.78
2023-04-02T09:40:13.325Z,1.45
2023-04-02T09:41:13.334Z,1.49
2023-04-02T09:42:13.345Z,1.32
2023-04-02T09:43:13.349Z,1.39
2023-04-02T09:44:13.334Z,1.92
2023-04-02T09:45:13.312Z,1.02
2023-04-02T09:46:13.340Z,1.21
2023-04-02T09:47:13.313Z,0.86
2023-04-02T09:48:13.355Z,0.58
2023-04-02T09:49:13.288Z,0.49
2023-04-02T09:50:13.299Z,0.56
2023-04-02T09:51:13.310Z,0.65
2023-04-02T09:52:13.283Z,0.62
2023-04-02T09:53:13.264Z,0.67
2023-04-02T09:54:13.250Z,0.75
2023-04-02T09:55:13.227Z,0.79
2023-04-02T09:56:13.244Z,0.82
2023-04-02T09:57:13.292Z,0.95
2023-04-02T09:58:13.249Z,0.89
2023-04-02T09:59:13.231Z,0.92
2023-04-02T10:00:25.384Z,1.10
2023-04-02T10:01:14.230Z,1.11
2023-04-02T10:02:13.189Z,1.12
2023-04-02T10:03:13.177Z,1.00
2023-04-02T10:04:13.258Z,1.17
2023-04-02T10:05:13.716Z,1.09
2023-04-02T10:06:13.193Z,0.93
2023-04-02T10:07:13.202Z,0.73
2023-04-02T10:08:13.205Z,0.43
2023-04-02T10:09:13.124Z,0.51
2023-04-02T10:10:13.231Z,0.94
2023-04-02T10:11:13.153Z,1.12
2023-04-02T10:12:13.152Z,1.03
2023-04-02T10:13:13.207Z,0.78
2023-04-02T10:14:13.240Z,1.32
2023-04-02T10:15:13.240Z,1.39
2023-04-02T10:16:13.358Z,1.44
2023-04-02T10:17:13.502Z,1.92
2023-04-02T10:18:13.308Z,4.08
2023-04-02T10:19:13.327Z,5.05
2023-04-02T10:20:13.434Z,3.55
2023-04-02T10:21:13.352Z,2.90
2023-04-02T10:22:13.402Z,2.54
2023-04-02T10:23:13.445Z,1.95
2023-04-02T10:24:13.450Z,1.95
2023-04-02T10:25:13.468Z,2.80
2023-04-02T10:26:13.474Z,3.70
2023-04-02T10:27:13.568Z,3.58
2023-04-02T10:28:13.549Z,3.19
2023-04-02T10:29:13.580Z,2.35
2023-04-02T10:30:13.594Z,2.29
2023-04-02T10:31:13.670Z,1.71
2023-04-02T10:32:13.660Z,2.20
2023-04-02T10:33:13.690Z,1.98
2023-04-02T10:34:13.724Z,1.52
2023-04-02T10:35:13.752Z,1.97
2023-04-02T10:36:13.823Z,3.01
2023-04-02T10:37:13.848Z,2.27
2023-04-02T10:38:13.799Z,2.58
2023-04-02T10:39:13.856Z,2.40
2023-04-02T10:40:13.884Z,1.41
2023-04-02T10:41:13.900Z,0.86
2023-04-02T10:42:13.883Z,0.67
2023-04-02T10:43:13.940Z,0.52
2023-04-02T10:44:20.234Z,0.70
2023-04-02T10:45:14.922Z,0.70
2023-04-02T10:46:13.941Z,0.70
2023-04-02T10:47:13.927Z,0.75
2023-04-02T10:48:13.944Z,0.79
2023-04-02T10:49:13.928Z,0.97
2023-04-02T10:50:13.883Z,0.99
2023-04-02T10:51:14.191Z,0.99
2023-04-02T10:52:13.890Z,1.14
2023-04-02T10:53:13.844Z,1.27
2023-04-02T10:54:13.917Z,0.82
2023-04-02T10:55:13.859Z,1.07
2023-04-02T10:56:13.843Z,1.40
2023-04-02T10:57:13.887Z,1.03
2023-04-02T10:58:13.887Z,0.89
2023-04-02T10:59:13.903Z,0.63
2023-04-02T11:00:13.932Z,0.52
2023-04-02T11:01:13.965Z,0.80
2023-04-02T11:02:14.024Z,1.03
2023-04-02T11:03:14.150Z,0.70
2023-04-02T11:04:14.342Z,0.56
2023-04-02T11:05:14.165Z,0.62
2023-04-02T11:06:14.125Z,0.64
2023-04-02T11:07:14.988Z,0.61
2023-04-02T11:08:15.176Z,0.63
2023-04-02T11:09:14.199Z,0.62
2023-04-02T11:10:14.238Z,0.68
2023-04-02T11:11:14.315Z,0.51
2023-04-02T11:12:14.323Z,0.64
2023-04-02T11:13:14.338Z,0.66
2023-04-02T11:14:14.410Z,0.95
2023-04-02T11:15:14.421Z,1.26
2023-04-02T11:16:14.528Z,1.54
2023-04-02T11:17:14.453Z,1.50
2023-04-02T11:18:14.466Z,0.71
2023-04-02T11:19:14.531Z,0.38
2023-04-02T11:20:14.554Z,0.50
2023-04-02T11:21:14.582Z,0.49
2023-04-02T11:22:14.649Z,0.52
2023-04-02T11:23:14.655Z,0.76
2023-04-02T11:24:14.701Z,0.83
2023-04-02T11:25:14.742Z,0.71
2023-04-02T11:26:14.786Z,0.63
2023-04-02T11:27:14.822Z,0.66
2023-04-02T11:28:14.828Z,0.75
2023-04-02T11:29:14.855Z,1.01
2023-04-02T11:30:14.878Z,1.45
2023-04-02T11:31:15.013Z,1.54
2023-04-02T11:32:15.001Z,1.52
2023-04-02T11:33:18.660Z,1.69
2023-04-02T11:34:16.022Z,0.86
2023-04-02T11:35:15.016Z,0.60
2023-04-02T11:36:15.076Z,0.54
2023-04-02T11:37:14.990Z,0.74
2023-04-02T11:38:15.002Z,0.68
2023-04-02T11:39:17.419Z,0.66
2023-04-02T11:40:15.157Z,0.83
2023-04-02T11:41:15.233Z,0.68
2023-04-02T11:42:15.232Z,0.50
2023-04-02T11:43:15.245Z,0.53
2023-04-02T11:44:15.323Z,0.61
2023-04-02T11:45:15.347Z,0.65
2023-04-02T11:46:15.406Z,0.67
2023-04-02T11:47:15.394Z,0.64
2023-04-02T11:48:15.466Z,0.34
2023-04-02T11:49:15.473Z,0.39
2023-04-02T11:50:15.500Z,0.50
2023-04-02T11:51:15.492Z,0.55
2023-04-02T11:52:15.544Z,0.95
2023-04-02T11:53:15.543Z,0.47
2023-04-02T11:54:15.645Z,0.35
2023-04-02T11:55:15.626Z,0.52
2023-04-02T11:56:15.666Z,0.47
2023-04-02T11:57:15.798Z,0.53
2023-04-02T11:58:15.747Z,0.56
2023-04-02T11:59:15.763Z,0.44
2023-04-02T12:00:17.968Z,0.40
2023-04-02T12:01:15.860Z,0.81
2023-04-02T12:02:15.891Z,0.94
2023-04-02T12:03:15.997Z,0.69
2023-04-02T12:04:15.914Z,0.99
2023-04-02T12:05:15.962Z,1.04
2023-04-02T12:06:15.995Z,0.96
2023-04-02T12:07:16.038Z,1.20
2023-04-02T12:08:16.049Z,0.91
2023-04-02T12:09:16.123Z,0.59
2023-04-02T12:10:16.112Z,0.43
2023-04-02T12:11:16.133Z,0.43
2023-04-02T12:12:16.159Z,0.56
2023-04-02T12:13:16.217Z,0.70
2023-04-02T12:14:16.245Z,0.95
2023-04-02T12:15:16.289Z,0.79
2023-04-02T12:16:16.332Z,0.77
2023-04-02T12:17:16.449Z,0.40
2023-04-02T12:18:16.384Z,0.49
2023-04-02T12:19:16.415Z,0.51
2023-04-02T12:20:16.435Z,0.57
2023-04-02T12:21:16.496Z,0.71
2023-04-02T12:22:16.556Z,0.92
2023-04-02T12:23:16.613Z,1.14
2023-04-02T12:24:16.616Z,0.75
2023-04-02T12:25:16.617Z,0.70
2023-04-02T12:26:16.692Z,0.71
2023-04-02T12:27:16.712Z,0.97
2023-04-02T12:28:16.745Z,0.75
2023-04-02T12:29:16.788Z,0.48
2023-04-02T12:30:16.789Z,0.34
2023-04-02T12:31:16.944Z,0.34
2023-04-02T12:32:16.870Z,0.49
2023-04-02T12:33:16.923Z,2.66
2023-04-02T12:34:16.952Z,1.60
2023-04-02T12:35:16.941Z,0.59
2023-04-02T12:36:17.083Z,0.39
2023-04-02T12:37:17.019Z,0.58
2023-04-02T12:38:17.042Z,0.91
2023-04-02T12:39:17.093Z,1.06
2023-04-02T12:40:17.149Z,0.73
2023-04-02T12:41:17.151Z,0.54
2023-04-02T12:42:17.213Z,0.74
2023-04-02T12:43:17.215Z,1.42
2023-04-02T12:44:17.264Z,1.07
2023-04-02T12:45:17.230Z,0.56
2023-04-02T12:46:17.304Z,0.71
2023-04-02T12:47:17.309Z,1.14
2023-04-02T12:48:17.312Z,1.10
2023-04-02T12:49:17.321Z,1.72
2023-04-02T12:50:17.346Z,2.52
2023-04-02T12:51:17.719Z,3.27
2023-04-02T12:52:17.377Z,7.32
2023-04-02T12:53:17.440Z,13.13
2023-04-02T12:54:17.473Z,24.30
2023-04-02T12:55:17.459Z,14.22
2023-04-02T12:56:17.535Z,11.60
2023-04-02T12:57:17.584Z,12.07
2023-04-02T12:58:17.560Z,17.21
2023-04-02T12:59:17.598Z,28.37
2023-04-02T13:00:17.615Z,51.49
2023-04-02T13:01:17.653Z,58.30
2023-04-02T13:02:17.671Z,59.31
2023-04-02T13:03:17.884Z,48.53
2023-04-02T13:04:17.949Z,46.88
2023-04-02T13:05:17.803Z,33.72
2023-04-02T13:06:17.848Z,60.18
2023-04-02T13:07:17.862Z,40.89
2023-04-02T13:08:17.916Z,47.79
2023-04-02T13:09:17.904Z,41.97